Terminal Aerodrome Forecast
Issued by NWS Mt. Holly, NJ

Home | Current Version | Previous Version | Text Only | Print | Product List | Glossary On
Versions: 1 2 3 4 5 6 7 8 9 10 11 12 13 14 15 16 17 18
000
FTUS41 KPHI 271731
TAFACY
TAF
KACY 271731Z 2718/2818 18010KT P6SM SCT025 OVC035
     FM280300 VRB04KT P6SM BKN150 BKN250
     FM280700 VRB03KT P6SM SCT025 OVC050
     FM281000 VRB03KT 3SM BR BKN008 OVC015
     FM281500 VRB05KT 4SM -SHRA BR BKN008 OVC015=

USA.gov is the U.S. government's official web portal to all federal, state and local government web resources and services.